^^
Grace C. Lehan Memorial Weather Station Historical Data
Daily Summary for April 13, 2021 Units:  Both    English   Metric
Daily Weekly Monthly Yearly
  High: Low: Average:
Temperature: 39.8 °F /  4.3 °C 27.6 °F /  -2.4 °C 35.5 °F /  1.9 °C
Dew Point: 29.7 °F /  -1.3 °C 24.4 °F /  -4.2 °C 27.8 °F /  -2.3 °C
Humidity: 90% 63.4% 73%
Wind Speed: 2.1mph /  3.4km/h - 0.1mph /  0.2km/h
Wind Gust: 9mph /  14.5km/h - -
Wind- - SW
Pressure: 30.06 in /  1017.8 hPa 29.86 in /  1011.1 hPa -
Precipitation: 0.00 in /  0 mm    
 
 
Tabular Data for April 13, 2021
Time Temperature Dew Point Pressure Wind Wind Speed Wind Gust Humidity Rainfall Rate (Hourly) solar
00:04 34.6 °F /  1.4 °C 26.9 °F /  -2.8 °C 30.05in /  1017.5hPa Calm     73% 0.00in /  0mm 0 W/m2
00:09 34.6 °F /  1.4 °C 26.9 °F /  -2.8 °C 30.05in /  1017.5hPa Calm     73% 0.00in /  0mm 0 W/m2
00:14 34.6 °F /  1.4 °C 26.8 °F /  -2.9 °C 30.05in /  1017.5hPa Calm     73% 0.00in /  0mm 0 W/m2
00:19 34.5 °F /  1.4 °C 26.8 °F /  -2.9 °C 30.05in /  1017.5hPa Calm     73.1% 0.00in /  0mm 0 W/m2
00:24 34.5 °F /  1.4 °C 27.1 °F /  -2.7 °C 30.04in /  1017.2hPa Calm     74% 0.00in /  0mm 0 W/m2
00:29 34.4 °F /  1.3 °C 27 °F /  -2.8 °C 30.04in /  1017.2hPa Calm     74% 0.00in /  0mm 0 W/m2
00:34 34.4 °F /  1.3 °C 27 °F /  -2.8 °C 30.04in /  1017.2hPa Calm     74% 0.00in /  0mm 0 W/m2
00:39 34.4 °F /  1.3 °C 27 °F /  -2.8 °C 30.04in /  1017.2hPa Calm     74% 0.00in /  0mm 0 W/m2
00:44 34.4 °F /  1.3 °C 27 °F /  -2.8 °C 30.04in /  1017.2hPa Calm     74% 0.00in /  0mm 0 W/m2
00:49 34.4 °F /  1.3 °C 27 °F /  -2.8 °C 30.05in /  1017.5hPa Calm     74% 0.00in /  0mm 0 W/m2
00:54 34.3 °F /  1.3 °C 27 °F /  -2.8 °C 30.04in /  1017.2hPa Calm     74.1% 0.00in /  0mm 0 W/m2
00:59 34.3 °F /  1.3 °C 27.2 °F /  -2.7 °C 30.04in /  1017.2hPa Calm     75% 0.00in /  0mm 0 W/m2
01:04 34.3 °F /  1.3 °C 27.2 °F /  -2.7 °C 30.04in /  1017.2hPa Calm     75% 0.00in /  0mm 0 W/m2
01:09 34.3 °F /  1.3 °C 27.2 °F /  -2.7 °C 30.04in /  1017.2hPa Calm     75% 0.00in /  0mm 0 W/m2
01:14 34.2 °F /  1.2 °C 27.2 °F /  -2.7 °C 30.04in /  1017.2hPa Calm     75% 0.00in /  0mm 0 W/m2
01:19 34.2 °F /  1.2 °C 27.4 °F /  -2.6 °C 30.04in /  1017.2hPa Calm     75.9% 0.00in /  0mm 0 W/m2
01:24 34.1 °F /  1.2 °C 27.4 °F /  -2.6 °C 30.04in /  1017.2hPa Calm     76% 0.00in /  0mm 0 W/m2
01:29 34.1 °F /  1.2 °C 27.3 °F /  -2.6 °C 30.04in /  1017.2hPa Calm     76% 0.00in /  0mm 0 W/m2
01:34 34 °F /  1.1 °C 27.2 °F /  -2.7 °C 30.04in /  1017.2hPa Calm     76% 0.00in /  0mm 0 W/m2
01:39 33.9 °F /  1.1 °C 27.2 °F /  -2.7 °C 30.03in /  1016.8hPa Calm     76% 0.00in /  0mm 0 W/m2
01:44 33.9 °F /  1.1 °C 27.2 °F /  -2.7 °C 30.03in /  1016.8hPa Calm     76% 0.00in /  0mm 0 W/m2
01:49 33.9 °F /  1.1 °C 27.2 °F /  -2.7 °C 30.04in /  1017.2hPa Calm     76% 0.00in /  0mm 0 W/m2
01:54 33.9 °F /  1.1 °C 26.9 °F /  -2.8 °C 30.04in /  1017.2hPa Calm     75.3% 0.00in /  0mm 0 W/m2
01:59 33.8 °F /  1 °C 26.8 °F /  -2.9 °C 30.04in /  1017.2hPa Calm     75% 0.00in /  0mm 0 W/m2
02:04 33.8 °F /  1 °C 27.3 °F /  -2.6 °C 30.05in /  1017.5hPa Calm     76.7% 0.00in /  0mm 0 W/m2
02:09 33.7 °F /  0.9 °C 26.6 °F /  -3 °C 30.05in /  1017.5hPa Calm     75% 0.00in /  0mm 0 W/m2
02:14 33.6 °F /  0.9 °C 26.5 °F /  -3.1 °C 30.04in /  1017.2hPa Calm     75% 0.00in /  0mm 0 W/m2
02:19 33.5 °F /  0.8 °C 26.5 °F /  -3.1 °C 30.04in /  1017.2hPa Calm     75.3% 0.00in /  0mm 0 W/m2
02:24 33.4 °F /  0.8 °C 26.7 °F /  -2.9 °C 30.04in /  1017.2hPa Calm     76% 0.00in /  0mm 0 W/m2
02:29 33.3 °F /  0.7 °C 26.6 °F /  -3 °C 30.04in /  1017.2hPa Calm     76% 0.00in /  0mm 0 W/m2
02:34 33.3 °F /  0.7 °C 26.5 °F /  -3.1 °C 30.04in /  1017.2hPa Calm     76% 0.00in /  0mm 0 W/m2
02:39 33.2 °F /  0.7 °C 26.4 °F /  -3.1 °C 30.04in /  1017.2hPa Calm     76% 0.00in /  0mm 0 W/m2
02:44 33 °F /  0.6 °C 26.3 °F /  -3.2 °C 30.04in /  1017.2hPa Calm     76% 0.00in /  0mm 0 W/m2
02:49 32.9 °F /  0.5 °C 26.4 °F /  -3.1 °C 30.03in /  1016.8hPa Calm     76.7% 0.00in /  0mm 0 W/m2
02:54 32.8 °F /  0.4 °C 26.4 °F /  -3.1 °C 30.03in /  1016.8hPa Calm     77% 0.00in /  0mm 0 W/m2
02:59 32.6 °F /  0.3 °C 26.2 °F /  -3.2 °C 30.03in /  1016.8hPa NNW 0.1mph /  0.2km/h 2mph /  3.2km/h 77% 0.00in /  0mm 0 W/m2
03:00 32.5 °F /  0.3 °C 26.1 °F /  -3.3 °C 30.03in /  1016.8hPa Calm   2mph /  3.2km/h 77% 0.00in /  0mm 0 W/m2
03:30 31.6 °F /  -0.2 °C 26.2 °F /  -3.2 °C 30.02in /  1016.5hPa Calm     80% 0.00in /  0mm 0 W/m2
04:04 31.6 °F /  -0.2 °C 26.4 °F /  -3.1 °C 30.02in /  1016.5hPa Calm     80.9% 0.00in /  0mm 0 W/m2
04:09 31.6 °F /  -0.2 °C 26.5 °F /  -3.1 °C 30.02in /  1016.5hPa Calm     81% 0.00in /  0mm 0 W/m2
04:14 31.6 °F /  -0.2 °C 26.5 °F /  -3.1 °C 30.02in /  1016.5hPa Calm     81% 0.00in /  0mm 0 W/m2
04:19 31.6 °F /  -0.2 °C 26.4 °F /  -3.1 °C 30.02in /  1016.5hPa Calm     80.8% 0.00in /  0mm 0 W/m2
04:24 31.5 °F /  -0.3 °C 26.3 °F /  -3.2 °C 30.03in /  1016.8hPa Calm     80.6% 0.00in /  0mm 0 W/m2
04:29 31.4 °F /  -0.3 °C 26.1 °F /  -3.3 °C 30.03in /  1016.8hPa NNW 0.5mph /  0.8km/h 3mph /  4.8km/h 80.3% 0.00in /  0mm 0 W/m2
04:34 31.2 °F /  -0.4 °C 25.8 °F /  -3.4 °C 30.03in /  1016.8hPa Calm   3mph /  4.8km/h 80.2% 0.00in /  0mm 0 W/m2
04:39 30.9 °F /  -0.6 °C 25.8 °F /  -3.4 °C 30.03in /  1016.8hPa Calm     80.8% 0.00in /  0mm 0 W/m2
04:44 30.8 °F /  -0.7 °C 25.7 °F /  -3.5 °C 30.03in /  1016.8hPa Calm     81.2% 0.00in /  0mm 0 W/m2
04:49 30.7 °F /  -0.7 °C 25.8 °F /  -3.4 °C 30.03in /  1016.8hPa Calm     82% 0.00in /  0mm 0 W/m2
04:54 30.6 °F /  -0.8 °C 25.8 °F /  -3.4 °C 30.03in /  1016.8hPa Calm     82% 0.00in /  0mm 0 W/m2
04:59 30.6 °F /  -0.8 °C 25.8 °F /  -3.4 °C 30.04in /  1017.2hPa Calm     82% 0.00in /  0mm 0 W/m2
05:04 30.6 °F /  -0.8 °C 25.8 °F /  -3.4 °C 30.04in /  1017.2hPa Calm     82% 0.00in /  0mm 0 W/m2
05:09 30.5 °F /  -0.8 °C 25.8 °F /  -3.4 °C 30.04in /  1017.2hPa Calm     82.2% 0.00in /  0mm 0 W/m2
05:14 30.5 °F /  -0.8 °C 26 °F /  -3.3 °C 30.04in /  1017.2hPa Calm     83% 0.00in /  0mm 0 W/m2
05:19 30.5 °F /  -0.8 °C 26 °F /  -3.3 °C 30.04in /  1017.2hPa Calm   1mph /  1.6km/h 83% 0.00in /  0mm 0 W/m2
05:24 30.3 °F /  -0.9 °C 25.5 °F /  -3.6 °C 30.04in /  1017.2hPa Calm   1mph /  1.6km/h 82% 0.00in /  0mm 0 W/m2
05:29 30.1 °F /  -1.1 °C 25.3 °F /  -3.7 °C 30.04in /  1017.2hPa Calm   1mph /  1.6km/h 82.1% 0.00in /  0mm 0 W/m2
05:34 29.9 °F /  -1.2 °C 25.3 °F /  -3.7 °C 30.04in /  1017.2hPa Calm   1mph /  1.6km/h 82.7% 0.00in /  0mm 0 W/m2
05:39 29.7 °F /  -1.3 °C 25.1 °F /  -3.8 °C 30.05in /  1017.5hPa Calm     83% 0.00in /  0mm 0 W/m2
05:44 29.5 °F /  -1.4 °C 25 °F /  -3.9 °C 30.05in /  1017.5hPa Calm     83.2% 0.00in /  0mm 0 W/m2
05:49 29.3 °F /  -1.5 °C 25.1 °F /  -3.8 °C 30.05in /  1017.5hPa Calm     84% 0.00in /  0mm 0 W/m2
05:54 29.3 °F /  -1.5 °C 25.2 °F /  -3.8 °C 30.04in /  1017.2hPa Calm     84.5% 0.00in /  0mm 0 W/m2
05:59 29.2 °F /  -1.6 °C 25.2 °F /  -3.8 °C 30.04in /  1017.2hPa Calm     85% 0.00in /  0mm 0 W/m2
06:04 29.1 °F /  -1.6 °C 25.1 °F /  -3.8 °C 30.04in /  1017.2hPa Calm     85% 0.00in /  0mm 0 W/m2
06:09 28.9 °F /  -1.7 °C 25 °F /  -3.9 °C 30.04in /  1017.2hPa Calm     85% 0.00in /  0mm 0 W/m2
06:14 28.8 °F /  -1.8 °C 25.5 °F /  -3.6 °C 30.04in /  1017.2hPa Calm     87.4% 0.00in /  0mm 0 W/m2
06:19 28.7 °F /  -1.8 °C 25 °F /  -3.9 °C 30.05in /  1017.5hPa Calm     86% 0.00in /  0mm 0 W/m2
06:24 28.6 °F /  -1.9 °C 24.9 °F /  -3.9 °C 30.04in /  1017.2hPa Calm     86% 0.00in /  0mm 0 W/m2
06:29 28.5 °F /  -1.9 °C 24.9 °F /  -3.9 °C 30.05in /  1017.5hPa Calm     86% 0.00in /  0mm 0 W/m2
06:33 28.4 °F /  -2 °C 24.8 °F /  -4 °C 30.04in /  1017.2hPa Calm     86% 0.00in /  0mm 0 W/m2
06:39 28.4 °F /  -2 °C 25 °F /  -3.9 °C 30.04in /  1017.2hPa Calm     86.9% 0.00in /  0mm 0 W/m2
06:44 28.4 °F /  -2 °C 25 °F /  -3.9 °C 30.04in /  1017.2hPa Calm     87% 0.00in /  0mm 0 W/m2
06:49 28.3 °F /  -2.1 °C 24.9 °F /  -3.9 °C 30.04in /  1017.2hPa Calm     87% 0.00in /  0mm 0 W/m2
06:54 28.2 °F /  -2.1 °C 24.8 °F /  -4 °C 30.04in /  1017.2hPa Calm     87% 0.00in /  0mm 0 W/m2
06:59 28 °F /  -2.2 °C 24.7 °F /  -4.1 °C 30.04in /  1017.2hPa Calm     87% 0.00in /  0mm 0 W/m2
07:04 27.9 °F /  -2.3 °C 24.6 °F /  -4.1 °C 30.04in /  1017.2hPa Calm     87% 0.00in /  0mm 0 W/m2
07:09 27.9 °F /  -2.3 °C 24.5 °F /  -4.2 °C 30.04in /  1017.2hPa Calm     87% 0.00in /  0mm 0 W/m2
07:14 27.9 °F /  -2.3 °C 24.5 °F /  -4.2 °C 30.05in /  1017.5hPa Calm     87% 0.00in /  0mm 0 W/m2
07:19 27.8 °F /  -2.3 °C 24.4 °F /  -4.2 °C 30.05in /  1017.5hPa Calm     87% 0.00in /  0mm 5 W/m2
07:24 27.7 °F /  -2.4 °C 24.4 °F /  -4.2 °C 30.05in /  1017.5hPa Calm     87% 0.00in /  0mm 9 W/m2
07:29 27.7 °F /  -2.4 °C 24.6 °F /  -4.1 °C 30.05in /  1017.5hPa Calm     88% 0.00in /  0mm 12 W/m2
07:34 27.6 °F /  -2.4 °C 24.6 °F /  -4.1 °C 30.05in /  1017.5hPa Calm     88% 0.00in /  0mm 14 W/m2
07:39 27.7 °F /  -2.4 °C 24.6 °F /  -4.1 °C 30.05in /  1017.5hPa Calm     88% 0.00in /  0mm 19 W/m2
07:44 27.8 °F /  -2.3 °C 24.7 °F /  -4.1 °C 30.05in /  1017.5hPa Calm     88% 0.00in /  0mm 25 W/m2
07:49 27.9 °F /  -2.3 °C 24.9 °F /  -3.9 °C 30.05in /  1017.5hPa Calm     88.1% 0.00in /  0mm 37 W/m2
07:54 28.1 °F /  -2.2 °C 25.3 °F /  -3.7 °C 30.05in /  1017.5hPa Calm     89% 0.00in /  0mm 46 W/m2
07:59 28.4 °F /  -2 °C 25.6 °F /  -3.6 °C 30.05in /  1017.5hPa Calm     89% 0.00in /  0mm 47 W/m2
08:09 29.5 °F /  -1.4 °C 27 °F /  -2.8 °C 30.04in /  1017.2hPa Calm     90% 0.00in /  0mm 90 W/m2
08:14 30.2 °F /  -1 °C 27.4 °F /  -2.6 °C 30.04in /  1017.2hPa Calm     89.2% 0.00in /  0mm 81 W/m2
08:19 30.8 °F /  -0.7 °C 27.7 °F /  -2.4 °C 30.04in /  1017.2hPa Calm     88.2% 0.00in /  0mm 121 W/m2
08:24 31.4 °F /  -0.3 °C 28 °F /  -2.2 °C 30.04in /  1017.2hPa Calm     87.3% 0.00in /  0mm 176 W/m2
08:29 32 °F /  0 °C 28.3 °F /  -2.1 °C 30.04in /  1017.2hPa Calm     86% 0.00in /  0mm 176 W/m2
08:34 32.7 °F /  0.4 °C 28.7 °F /  -1.8 °C 30.04in /  1017.2hPa Calm     84.9% 0.00in /  0mm 125 W/m2
08:39 33.3 °F /  0.7 °C 28.9 °F /  -1.7 °C 30.04in /  1017.2hPa Calm     83.5% 0.00in /  0mm 76 W/m2
08:44 33.8 °F /  1 °C 28.8 °F /  -1.8 °C 30.05in /  1017.5hPa Calm     81.9% 0.00in /  0mm 118 W/m2
08:49 34.2 °F /  1.2 °C 28.8 °F /  -1.8 °C 30.05in /  1017.5hPa Calm     80.3% 0.00in /  0mm 132 W/m2
08:54 34.6 °F /  1.4 °C 28.9 °F /  -1.7 °C 30.05in /  1017.5hPa Calm     79.6% 0.00in /  0mm 165 W/m2
08:59 35.1 °F /  1.7 °C 29.2 °F /  -1.6 °C 30.05in /  1017.5hPa Calm     79% 0.00in /  0mm 162 W/m2
09:04 35.6 °F /  2 °C 29.4 °F /  -1.4 °C 30.06in /  1017.8hPa Calm     77.7% 0.00in /  0mm 81 W/m2
09:09 36 °F /  2.2 °C 29.3 °F /  -1.5 °C 30.05in /  1017.5hPa Calm     76.3% 0.00in /  0mm 132 W/m2
09:14 36.3 °F /  2.4 °C 29.5 °F /  -1.4 °C 30.05in /  1017.5hPa Calm     76% 0.00in /  0mm 149 W/m2
09:19 36.6 °F /  2.6 °C 29.7 °F /  -1.3 °C 30.05in /  1017.5hPa Calm     75.8% 0.00in /  0mm 139 W/m2
09:24 37 °F /  2.8 °C 29.7 °F /  -1.3 °C 30.05in /  1017.5hPa Calm     74.7% 0.00in /  0mm 209 W/m2
09:29 37.3 °F /  2.9 °C 29.7 °F /  -1.3 °C 30.05in /  1017.5hPa Calm     73.6% 0.00in /  0mm 209 W/m2
09:34 37.6 °F /  3.1 °C 29.3 °F /  -1.5 °C 30.06in /  1017.8hPa Calm     71.6% 0.00in /  0mm 60 W/m2
09:39 37.9 °F /  3.3 °C 29.6 °F /  -1.3 °C 30.05in /  1017.5hPa Calm     71.7% 0.00in /  0mm 76 W/m2
09:44 38.2 °F /  3.4 °C 29.5 °F /  -1.4 °C 30.05in /  1017.5hPa Calm     70.6% 0.00in /  0mm 127 W/m2
09:49 38.5 °F /  3.6 °C 29.5 °F /  -1.4 °C 30.04in /  1017.2hPa Calm     70% 0.00in /  0mm 123 W/m2
09:54 38.7 °F /  3.7 °C 29.3 °F /  -1.5 °C 30.04in /  1017.2hPa Calm     68.7% 0.00in /  0mm 86 W/m2
09:59 38.7 °F /  3.7 °C 28.8 °F /  -1.8 °C 30.04in /  1017.2hPa NNW 0.1mph /  0.2km/h 2mph /  3.2km/h 67.4% 0.00in /  0mm 121 W/m2
10:04 38.6 °F /  3.7 °C 28.9 °F /  -1.7 °C 30.04in /  1017.2hPa Calm   2mph /  3.2km/h 67.8% 0.00in /  0mm 109 W/m2
10:09 38.6 °F /  3.7 °C 29 °F /  -1.7 °C 30.04in /  1017.2hPa Calm   1mph /  1.6km/h 68% 0.00in /  0mm 105 W/m2
10:14 38.6 °F /  3.7 °C 29 °F /  -1.7 °C 30.03in /  1016.8hPa NE 0.6mph /  1km/h 3mph /  4.8km/h 68% 0.00in /  0mm 218 W/m2
10:19 38.5 °F /  3.6 °C 28.9 °F /  -1.7 °C 30.03in /  1016.8hPa Calm   3mph /  4.8km/h 68% 0.00in /  0mm 271 W/m2
10:24 38.6 °F /  3.7 °C 29 °F /  -1.7 °C 30.03in /  1016.8hPa Calm   3mph /  4.8km/h 68% 0.00in /  0mm 243 W/m2
10:29 39 °F /  3.9 °C 29.3 °F /  -1.5 °C 30.02in /  1016.5hPa Calm   3mph /  4.8km/h 67.8% 0.00in /  0mm 178 W/m2
10:34 39.3 °F /  4.1 °C 29.3 °F /  -1.5 °C 30.02in /  1016.5hPa Calm   3mph /  4.8km/h 67% 0.00in /  0mm 179 W/m2
10:39 39.6 °F /  4.2 °C 29.5 °F /  -1.4 °C 30.02in /  1016.5hPa Calm     67% 0.00in /  0mm 232 W/m2
10:44 39.8 °F /  4.3 °C 29.3 °F /  -1.5 °C 30.02in /  1016.5hPa Calm     65.9% 0.00in /  0mm 232 W/m2
10:49 39.7 °F /  4.3 °C 29 °F /  -1.7 °C 30.02in /  1016.5hPa Calm     65.2% 0.00in /  0mm 178 W/m2
10:54 39.5 °F /  4.2 °C 28.8 °F /  -1.8 °C 30.01in /  1016.1hPa Calm     65% 0.00in /  0mm 176 W/m2
10:59 39.3 °F /  4.1 °C 28.6 °F /  -1.9 °C 30.01in /  1016.1hPa Calm   1mph /  1.6km/h 65% 0.00in /  0mm 192 W/m2
11:04 39.2 °F /  4 °C 28.7 °F /  -1.8 °C 30.01in /  1016.1hPa Calm   1mph /  1.6km/h 65.8% 0.00in /  0mm 165 W/m2
11:09 39.1 °F /  3.9 °C 28.7 °F /  -1.8 °C 30.01in /  1016.1hPa Calm     66% 0.00in /  0mm 176 W/m2
11:14 39 °F /  3.9 °C 28.8 °F /  -1.8 °C 30.01in /  1016.1hPa SSE 0.9mph /  1.4km/h 5mph /  8km/h 66.4% 0.00in /  0mm 181 W/m2
11:19 38.9 °F /  3.8 °C 28.9 °F /  -1.7 °C 30.01in /  1016.1hPa SSW 1mph /  1.6km/h 5mph /  8km/h 67% 0.00in /  0mm 156 W/m2
11:24 38.9 °F /  3.8 °C 28.9 °F /  -1.7 °C 30.01in /  1016.1hPa SSW 0.5mph /  0.8km/h 5mph /  8km/h 67% 0.00in /  0mm 146 W/m2
11:29 38.7 °F /  3.7 °C 28.7 °F /  -1.8 °C 30.00in /  1015.8hPa SSW 0.8mph /  1.3km/h 5mph /  8km/h 67% 0.00in /  0mm 153 W/m2
11:34 38.6 °F /  3.7 °C 28.6 °F /  -1.9 °C 30.00in /  1015.8hPa SSW 0.1mph /  0.2km/h 5mph /  8km/h 67% 0.00in /  0mm 144 W/m2
11:39 38.6 °F /  3.7 °C 28.9 °F /  -1.7 °C 29.99in /  1015.5hPa SSW 0.2mph /  0.3km/h 3mph /  4.8km/h 67.7% 0.00in /  0mm 174 W/m2
11:44 38.7 °F /  3.7 °C 29.2 °F /  -1.6 °C 29.99in /  1015.5hPa Calm   3mph /  4.8km/h 68.5% 0.00in /  0mm 186 W/m2
11:49 38.9 °F /  3.8 °C 29.6 °F /  -1.3 °C 29.99in /  1015.5hPa SSW 0.2mph /  0.3km/h 3mph /  4.8km/h 69% 0.00in /  0mm 169 W/m2
11:54 39.1 °F /  3.9 °C 29.3 °F /  -1.5 °C 29.98in /  1015.1hPa Calm   3mph /  4.8km/h 67.8% 0.00in /  0mm 192 W/m2
11:59 39.2 °F /  4 °C 29 °F /  -1.7 °C 29.97in /  1014.8hPa Calm   3mph /  4.8km/h 66.5% 0.00in /  0mm 211 W/m2
12:09 39.6 °F /  4.2 °C 29.2 °F /  -1.6 °C 29.97in /  1014.8hPa Calm     66% 0.00in /  0mm 188 W/m2
12:14 39.8 °F /  4.3 °C 29 °F /  -1.7 °C 29.96in /  1014.4hPa Calm   2mph /  3.2km/h 65.2% 0.00in /  0mm 178 W/m2
12:19 39.8 °F /  4.3 °C 28.7 °F /  -1.8 °C 29.95in /  1014.1hPa SSW 0.1mph /  0.2km/h 2mph /  3.2km/h 64.2% 0.00in /  0mm 183 W/m2
12:24 39.6 °F /  4.2 °C 28.2 °F /  -2.1 °C 29.95in /  1014.1hPa South 1.6mph /  2.6km/h 6mph /  9.7km/h 63.4% 0.00in /  0mm 181 W/m2
12:29 39.4 °F /  4.1 °C 28.3 °F /  -2.1 °C 29.95in /  1014.1hPa South 0.6mph /  1km/h 6mph /  9.7km/h 64% 0.00in /  0mm 193 W/m2
12:34 39.4 °F /  4.1 °C 28.6 °F /  -1.9 °C 29.96in /  1014.4hPa SSW 1.2mph /  1.9km/h 7mph /  11.3km/h 65% 0.00in /  0mm 178 W/m2
12:39 39.4 °F /  4.1 °C 28.2 °F /  -2.1 °C 29.96in /  1014.4hPa SSW 0.3mph /  0.5km/h 7mph /  11.3km/h 64% 0.00in /  0mm 139 W/m2
12:44 39.3 °F /  4.1 °C 28.2 °F /  -2.1 °C 29.95in /  1014.1hPa SSW 0.6mph /  1km/h 7mph /  11.3km/h 64% 0.00in /  0mm 137 W/m2
12:49 39.2 °F /  4 °C 28.1 °F /  -2.2 °C 29.95in /  1014.1hPa SSW 2mph /  3.2km/h 7mph /  11.3km/h 64% 0.00in /  0mm 130 W/m2
12:54 39.2 °F /  4 °C 28.3 °F /  -2.1 °C 29.95in /  1014.1hPa SW 1.5mph /  2.4km/h 7mph /  11.3km/h 64.7% 0.00in /  0mm 132 W/m2
12:59 39.2 °F /  4 °C 28.2 °F /  -2.1 °C 29.95in /  1014.1hPa SW 0.4mph /  0.6km/h 7mph /  11.3km/h 64.2% 0.00in /  0mm 130 W/m2
13:04 39.3 °F /  4.1 °C 28.5 °F /  -1.9 °C 29.94in /  1013.8hPa SW 0.7mph /  1.1km/h 7mph /  11.3km/h 65% 0.00in /  0mm 135 W/m2
13:09 39.3 °F /  4.1 °C 28.5 °F /  -1.9 °C 29.94in /  1013.8hPa SW 1mph /  1.6km/h 6mph /  9.7km/h 64.8% 0.00in /  0mm 146 W/m2
13:14 39.3 °F /  4.1 °C 28.4 °F /  -2 °C 29.94in /  1013.8hPa SW 2.1mph /  3.4km/h 6mph /  9.7km/h 64.6% 0.00in /  0mm 139 W/m2
13:19 39.3 °F /  4.1 °C 28.5 °F /  -1.9 °C 29.94in /  1013.8hPa SW 1.5mph /  2.4km/h 6mph /  9.7km/h 65% 0.00in /  0mm 135 W/m2
13:24 39.4 °F /  4.1 °C 28.6 °F /  -1.9 °C 29.94in /  1013.8hPa SW 1.3mph /  2.1km/h 6mph /  9.7km/h 65% 0.00in /  0mm 130 W/m2
13:29 39.5 °F /  4.2 °C 28.5 °F /  -1.9 °C 29.94in /  1013.8hPa SW 0.7mph /  1.1km/h 6mph /  9.7km/h 64.3% 0.00in /  0mm 113 W/m2
13:34 39.5 °F /  4.2 °C 28.5 °F /  -1.9 °C 29.94in /  1013.8hPa SW 1.5mph /  2.4km/h 9mph /  14.5km/h 64.3% 0.00in /  0mm 100 W/m2
13:39 39.5 °F /  4.2 °C 28.4 °F /  -2 °C 29.93in /  1013.4hPa SW 0.3mph /  0.5km/h 9mph /  14.5km/h 64% 0.00in /  0mm 91 W/m2
13:44 39.5 °F /  4.2 °C 28.4 °F /  -2 °C 29.94in /  1013.8hPa SW 0.3mph /  0.5km/h 9mph /  14.5km/h 64% 0.00in /  0mm 84 W/m2
13:49 39.5 °F /  4.2 °C 28.4 °F /  -2 °C 29.93in /  1013.4hPa Calm   9mph /  14.5km/h 64% 0.00in /  0mm 81 W/m2
13:54 39.5 °F /  4.2 °C 28.4 °F /  -2 °C 29.93in /  1013.4hPa Calm   9mph /  14.5km/h 64% 0.00in /  0mm 79 W/m2
13:59 39.5 °F /  4.2 °C 28.1 °F /  -2.2 °C 29.93in /  1013.4hPa Calm   9mph /  14.5km/h 63.4% 0.00in /  0mm 77 W/m2
14:04 39.4 °F /  4.1 °C 28.2 °F /  -2.1 °C 29.93in /  1013.4hPa SW 0.1mph /  0.2km/h 9mph /  14.5km/h 63.8% 0.00in /  0mm 72 W/m2
14:09 39.4 °F /  4.1 °C 28.3 °F /  -2.1 °C 29.93in /  1013.4hPa SW 0.3mph /  0.5km/h 3mph /  4.8km/h 64.1% 0.00in /  0mm 67 W/m2
14:14 39.3 °F /  4.1 °C 28.3 °F /  -2.1 °C 29.93in /  1013.4hPa SW 1.1mph /  1.8km/h 5mph /  8km/h 64.3% 0.00in /  0mm 62 W/m2
14:19 39.3 °F /  4.1 °C 28 °F /  -2.2 °C 29.93in /  1013.4hPa SW 0.3mph /  0.5km/h 5mph /  8km/h 63.6% 0.00in /  0mm 54 W/m2
14:24 39.2 °F /  4 °C 28 °F /  -2.2 °C 29.93in /  1013.4hPa SW 0.2mph /  0.3km/h 5mph /  8km/h 63.9% 0.00in /  0mm 49 W/m2
14:29 39.1 °F /  3.9 °C 28 °F /  -2.2 °C 29.92in /  1013.1hPa Calm   5mph /  8km/h 64% 0.00in /  0mm 51 W/m2
14:34 39.1 °F /  3.9 °C 28.1 °F /  -2.2 °C 29.92in /  1013.1hPa SW 0.1mph /  0.2km/h 5mph /  8km/h 64.5% 0.00in /  0mm 44 W/m2
14:39 39 °F /  3.9 °C 27.9 °F /  -2.3 °C 29.92in /  1013.1hPa SW 0.3mph /  0.5km/h 3mph /  4.8km/h 64% 0.00in /  0mm 42 W/m2
14:44 39 °F /  3.9 °C 27.9 °F /  -2.3 °C 29.92in /  1013.1hPa SW 0.4mph /  0.6km/h 6mph /  9.7km/h 64% 0.00in /  0mm 40 W/m2
14:49 38.9 °F /  3.8 °C 28 °F /  -2.2 °C 29.92in /  1013.1hPa SW 0.2mph /  0.3km/h 6mph /  9.7km/h 64.5% 0.00in /  0mm 39 W/m2
14:54 38.9 °F /  3.8 °C 28.1 °F /  -2.2 °C 29.93in /  1013.4hPa Calm   6mph /  9.7km/h 64.8% 0.00in /  0mm 33 W/m2
14:59 38.9 °F /  3.8 °C 28.1 °F /  -2.2 °C 29.93in /  1013.4hPa Calm   6mph /  9.7km/h 65% 0.00in /  0mm 33 W/m2
15:04 38.9 °F /  3.8 °C 28.1 °F /  -2.2 °C 29.93in /  1013.4hPa SW 0.4mph /  0.6km/h 6mph /  9.7km/h 65% 0.00in /  0mm 39 W/m2
15:09 38.8 °F /  3.8 °C 28.1 °F /  -2.2 °C 29.93in /  1013.4hPa SW 0.2mph /  0.3km/h 3mph /  4.8km/h 65% 0.00in /  0mm 40 W/m2
15:13 38.8 °F /  3.8 °C 28.1 °F /  -2.2 °C 29.93in /  1013.4hPa Calm   3mph /  4.8km/h 65% 0.00in /  0mm 33 W/m2
15:19 38.8 °F /  3.8 °C 28.1 °F /  -2.2 °C 29.92in /  1013.1hPa Calm   3mph /  4.8km/h 65% 0.00in /  0mm 30 W/m2
15:24 38.8 °F /  3.8 °C 28.2 °F /  -2.1 °C 29.92in /  1013.1hPa SW 0.1mph /  0.2km/h 3mph /  4.8km/h 65.3% 0.00in /  0mm 21 W/m2
15:29 38.8 °F /  3.8 °C 28.3 °F /  -2.1 °C 29.92in /  1013.1hPa SW 0.4mph /  0.6km/h 3mph /  4.8km/h 65.7% 0.00in /  0mm 21 W/m2
15:34 38.7 °F /  3.7 °C 28 °F /  -2.2 °C 29.92in /  1013.1hPa Calm   3mph /  4.8km/h 65% 0.00in /  0mm 23 W/m2
15:39 38.7 °F /  3.7 °C 28.1 °F /  -2.2 °C 29.91in /  1012.8hPa SW 0.7mph /  1.1km/h 4mph /  6.4km/h 65.4% 0.00in /  0mm 25 W/m2
15:44 38.7 °F /  3.7 °C 28.3 °F /  -2.1 °C 29.92in /  1013.1hPa SW 0.1mph /  0.2km/h 4mph /  6.4km/h 66% 0.00in /  0mm 26 W/m2
15:49 38.6 °F /  3.7 °C 28.3 °F /  -2.1 °C 29.92in /  1013.1hPa Calm   4mph /  6.4km/h 66% 0.00in /  0mm 32 W/m2
15:54 38.6 °F /  3.7 °C 28.4 °F /  -2 °C 29.92in /  1013.1hPa Calm   4mph /  6.4km/h 66.4% 0.00in /  0mm 28 W/m2
15:59 38.6 °F /  3.7 °C 28.2 °F /  -2.1 °C 29.91in /  1012.8hPa SW 0.4mph /  0.6km/h 4mph /  6.4km/h 66% 0.00in /  0mm 30 W/m2
16:00 38.6 °F /  3.7 °C 28.2 °F /  -2.1 °C 29.91in /  1012.8hPa Calm   4mph /  6.4km/h 66% 0.00in /  0mm 28 W/m2
16:09 38.6 °F /  3.7 °C 28.5 °F /  -1.9 °C 29.91in /  1012.8hPa Calm   2mph /  3.2km/h 66.6% 0.00in /  0mm 32 W/m2
16:14 38.6 °F /  3.7 °C 28.6 °F /  -1.9 °C 29.91in /  1012.8hPa SW 0.1mph /  0.2km/h 3mph /  4.8km/h 67% 0.00in /  0mm 26 W/m2
16:19 38.6 °F /  3.7 °C 28.6 °F /  -1.9 °C 29.91in /  1012.8hPa SW 0.3mph /  0.5km/h 3mph /  4.8km/h 67.1% 0.00in /  0mm 19 W/m2
16:24 38.6 °F /  3.7 °C 29 °F /  -1.7 °C 29.91in /  1012.8hPa SW 0.1mph /  0.2km/h 3mph /  4.8km/h 68% 0.00in /  0mm 12 W/m2
16:29 38.6 °F /  3.7 °C 29.2 °F /  -1.6 °C 29.90in /  1012.4hPa SW 0.6mph /  1km/h 4mph /  6.4km/h 68.7% 0.00in /  0mm 9 W/m2
16:34 38.5 °F /  3.6 °C 29.2 °F /  -1.6 °C 29.90in /  1012.4hPa SW 0.8mph /  1.3km/h 4mph /  6.4km/h 69% 0.00in /  0mm 7 W/m2
16:39 38.5 °F /  3.6 °C 29.2 °F /  -1.6 °C 29.90in /  1012.4hPa SW 0.2mph /  0.3km/h 3mph /  4.8km/h 69% 0.00in /  0mm 5 W/m2
16:44 38.4 °F /  3.6 °C 29.1 °F /  -1.6 °C 29.91in /  1012.8hPa SW 0.2mph /  0.3km/h 4mph /  6.4km/h 69% 0.00in /  0mm 0 W/m2
16:49 38.4 °F /  3.6 °C 29.1 °F /  -1.6 °C 29.91in /  1012.8hPa SW 0.1mph /  0.2km/h 4mph /  6.4km/h 69% 0.00in /  0mm 0 W/m2
16:54 38.3 °F /  3.5 °C 29 °F /  -1.7 °C 29.91in /  1012.8hPa SW 0.1mph /  0.2km/h 4mph /  6.4km/h 69% 0.00in /  0mm 0 W/m2
16:59 38.3 °F /  3.5 °C 29 °F /  -1.7 °C 29.91in /  1012.8hPa Calm   4mph /  6.4km/h 69% 0.00in /  0mm 0 W/m2
17:04 38.3 °F /  3.5 °C 29 °F /  -1.7 °C 29.91in /  1012.8hPa Calm   4mph /  6.4km/h 69% 0.00in /  0mm 0 W/m2
17:09 38.2 °F /  3.4 °C 28.9 °F /  -1.7 °C 29.91in /  1012.8hPa Calm     69% 0.00in /  0mm 0 W/m2
17:14 38.1 °F /  3.4 °C 28.9 °F /  -1.7 °C 29.91in /  1012.8hPa SW 0.1mph /  0.2km/h 2mph /  3.2km/h 69.2% 0.00in /  0mm 0 W/m2
17:19 38.1 °F /  3.4 °C 28.9 °F /  -1.7 °C 29.91in /  1012.8hPa SW 0.3mph /  0.5km/h 2mph /  3.2km/h 69.2% 0.00in /  0mm 0 W/m2
17:24 38 °F /  3.3 °C 28.8 °F /  -1.8 °C 29.90in /  1012.4hPa Calm   2mph /  3.2km/h 69% 0.00in /  0mm 0 W/m2
17:29 38 °F /  3.3 °C 28.8 °F /  -1.8 °C 29.90in /  1012.4hPa SW 0.2mph /  0.3km/h 3mph /  4.8km/h 69% 0.00in /  0mm 0 W/m2
17:34 38 °F /  3.3 °C 28.4 °F /  -2 °C 29.90in /  1012.4hPa Calm   3mph /  4.8km/h 68.1% 0.00in /  0mm 0 W/m2
17:39 37.9 °F /  3.3 °C 28.3 °F /  -2.1 °C 29.90in /  1012.4hPa SW 0.2mph /  0.3km/h 2mph /  3.2km/h 68.1% 0.00in /  0mm 0 W/m2
17:44 37.9 °F /  3.3 °C 28.6 °F /  -1.9 °C 29.90in /  1012.4hPa Calm   2mph /  3.2km/h 68.9% 0.00in /  0mm 0 W/m2
17:49 37.9 °F /  3.3 °C 28.7 °F /  -1.8 °C 29.90in /  1012.4hPa Calm   2mph /  3.2km/h 69% 0.00in /  0mm 0 W/m2
17:54 37.9 °F /  3.3 °C 28.5 °F /  -1.9 °C 29.90in /  1012.4hPa Calm   2mph /  3.2km/h 68.5% 0.00in /  0mm 0 W/m2
17:59 37.9 °F /  3.3 °C 28.3 °F /  -2.1 °C 29.90in /  1012.4hPa Calm   2mph /  3.2km/h 68% 0.00in /  0mm 0 W/m2
18:04 37.8 °F /  3.2 °C 28.2 °F /  -2.1 °C 29.89in /  1012.1hPa SW 0.1mph /  0.2km/h 2mph /  3.2km/h 68% 0.00in /  0mm 0 W/m2
18:09 37.8 °F /  3.2 °C 28.2 °F /  -2.1 °C 29.89in /  1012.1hPa Calm   1mph /  1.6km/h 68% 0.00in /  0mm 0 W/m2
18:14 37.7 °F /  3.2 °C 28.1 °F /  -2.2 °C 29.89in /  1012.1hPa Calm   1mph /  1.6km/h 68.1% 0.00in /  0mm 0 W/m2
18:19 37.7 °F /  3.2 °C 28.5 °F /  -1.9 °C 29.89in /  1012.1hPa Calm   1mph /  1.6km/h 69% 0.00in /  0mm 0 W/m2
18:24 37.7 °F /  3.2 °C 28.4 °F /  -2 °C 29.89in /  1012.1hPa Calm   1mph /  1.6km/h 69% 0.00in /  0mm 0 W/m2
18:29 37.6 °F /  3.1 °C 28.4 °F /  -2 °C 29.89in /  1012.1hPa Calm   1mph /  1.6km/h 69% 0.00in /  0mm 0 W/m2
18:34 37.6 °F /  3.1 °C 28.4 °F /  -2 °C 29.89in /  1012.1hPa Calm   1mph /  1.6km/h 69.1% 0.00in /  0mm 0 W/m2
18:39 37.5 °F /  3.1 °C 28.6 °F /  -1.9 °C 29.89in /  1012.1hPa Calm     70% 0.00in /  0mm 0 W/m2
18:44 37.4 °F /  3 °C 28.6 °F /  -1.9 °C 29.90in /  1012.4hPa Calm     70% 0.00in /  0mm 0 W/m2
18:49 37.4 °F /  3 °C 28.5 °F /  -1.9 °C 29.90in /  1012.4hPa Calm     70% 0.00in /  0mm 0 W/m2
18:54 37.3 °F /  2.9 °C 28.6 °F /  -1.9 °C 29.90in /  1012.4hPa Calm     70.5% 0.00in /  0mm 0 W/m2
18:59 37.3 °F /  2.9 °C 28.8 °F /  -1.8 °C 29.90in /  1012.4hPa Calm     71% 0.00in /  0mm 0 W/m2
19:04 37.3 °F /  2.9 °C 28.8 °F /  -1.8 °C 29.90in /  1012.4hPa Calm   2mph /  3.2km/h 71% 0.00in /  0mm 0 W/m2
19:09 37.3 °F /  2.9 °C 28.8 °F /  -1.8 °C 29.90in /  1012.4hPa Calm   2mph /  3.2km/h 71% 0.00in /  0mm 0 W/m2
19:14 37.4 °F /  3 °C 28.9 °F /  -1.7 °C 29.90in /  1012.4hPa Calm   2mph /  3.2km/h 71% 0.00in /  0mm 0 W/m2
19:19 37.4 °F /  3 °C 28.9 °F /  -1.7 °C 29.90in /  1012.4hPa Calm   2mph /  3.2km/h 71% 0.00in /  0mm 0 W/m2
19:24 37.3 °F /  2.9 °C 28.8 °F /  -1.8 °C 29.90in /  1012.4hPa Calm   2mph /  3.2km/h 71% 0.00in /  0mm 0 W/m2
19:29 37.3 °F /  2.9 °C 28.8 °F /  -1.8 °C 29.90in /  1012.4hPa Calm   2mph /  3.2km/h 71% 0.00in /  0mm 0 W/m2
19:34 37.3 °F /  2.9 °C 28.8 °F /  -1.8 °C 29.89in /  1012.1hPa Calm   2mph /  3.2km/h 71% 0.00in /  0mm 0 W/m2
19:39 37.3 °F /  2.9 °C 28.8 °F /  -1.8 °C 29.89in /  1012.1hPa Calm     71% 0.00in /  0mm 0 W/m2
19:44 37.3 °F /  2.9 °C 28.8 °F /  -1.8 °C 29.90in /  1012.4hPa Calm     71% 0.00in /  0mm 0 W/m2
19:49 37.3 °F /  2.9 °C 28.8 °F /  -1.8 °C 29.89in /  1012.1hPa Calm     71% 0.00in /  0mm 0 W/m2
19:54 37.3 °F /  2.9 °C 28.9 °F /  -1.7 °C 29.89in /  1012.1hPa Calm   1mph /  1.6km/h 71.4% 0.00in /  0mm 0 W/m2
19:59 37.3 °F /  2.9 °C 29.1 °F /  -1.6 °C 29.89in /  1012.1hPa Calm   1mph /  1.6km/h 72% 0.00in /  0mm 0 W/m2
20:00 37.2 °F /  2.9 °C 29 °F /  -1.7 °C 29.89in /  1012.1hPa Calm   1mph /  1.6km/h 72% 0.00in /  0mm 0 W/m2
20:09 37.2 °F /  2.9 °C 29 °F /  -1.7 °C 29.89in /  1012.1hPa Calm     72% 0.00in /  0mm 0 W/m2
20:14 37.1 °F /  2.8 °C 28.9 °F /  -1.7 °C 29.89in /  1012.1hPa Calm     72% 0.00in /  0mm 0 W/m2
20:19 37 °F /  2.8 °C 28.9 °F /  -1.7 °C 29.89in /  1012.1hPa Calm     72% 0.00in /  0mm 0 W/m2
20:23 37 °F /  2.8 °C 29 °F /  -1.7 °C 29.89in /  1012.1hPa Calm     72.5% 0.00in /  0mm 0 W/m2
20:28 36.9 °F /  2.7 °C 29 °F /  -1.7 °C 29.89in /  1012.1hPa Calm     73% 0.00in /  0mm 0 W/m2
20:30 36.8 °F /  2.7 °C 29 °F /  -1.7 °C 29.89in /  1012.1hPa Calm   2mph /  3.2km/h 73% 0.00in /  0mm 0 W/m2
21:00 36.4 °F /  2.4 °C 28.9 °F /  -1.7 °C 29.89in /  1012.1hPa Calm     74% 0.00in /  0mm 0 W/m2
21:30 36.3 °F /  2.4 °C 28.8 °F /  -1.8 °C 29.88in /  1011.7hPa Calm   2mph /  3.2km/h 74% 0.00in /  0mm 0 W/m2
22:00 35.8 °F /  2.1 °C 29 °F /  -1.7 °C 29.87in /  1011.4hPa Calm     76% 0.00in /  0mm 0 W/m2
22:30 35.5 °F /  1.9 °C 29 °F /  -1.7 °C 29.88in /  1011.7hPa Calm     77% 0.00in /  0mm 0 W/m2
23:04 35.4 °F /  1.9 °C 28.9 °F /  -1.7 °C 29.88in /  1011.7hPa Calm     77% 0.00in /  0mm 0 W/m2
23:09 35.4 °F /  1.9 °C 28.9 °F /  -1.7 °C 29.87in /  1011.4hPa Calm     77% 0.00in /  0mm 0 W/m2
23:14 35.3 °F /  1.8 °C 28.8 °F /  -1.8 °C 29.87in /  1011.4hPa Calm     77% 0.00in /  0mm 0 W/m2
23:19 35.3 °F /  1.8 °C 28.8 °F /  -1.8 °C 29.87in /  1011.4hPa Calm     77% 0.00in /  0mm 0 W/m2
23:24 35.3 °F /  1.8 °C 28.8 °F /  -1.8 °C 29.87in /  1011.4hPa Calm     77% 0.00in /  0mm 0 W/m2
23:29 35.3 °F /  1.8 °C 28.8 °F /  -1.8 °C 29.87in /  1011.4hPa Calm     77% 0.00in /  0mm 0 W/m2
23:34 35.3 °F /  1.8 °C 28.8 °F /  -1.8 °C 29.87in /  1011.4hPa Calm     77% 0.00in /  0mm 0 W/m2
23:39 35.3 °F /  1.8 °C 28.8 °F /  -1.8 °C 29.86in /  1011.1hPa Calm     77% 0.00in /  0mm 0 W/m2
23:44 35.3 °F /  1.8 °C 28.8 °F /  -1.8 °C 29.86in /  1011.1hPa Calm     77% 0.00in /  0mm 0 W/m2
23:49 35.3 °F /  1.8 °C 28.8 °F /  -1.8 °C 29.86in /  1011.1hPa Calm     77% 0.00in /  0mm 0 W/m2
23:54 35.3 °F /  1.8 °C 28.8 °F /  -1.8 °C 29.86in /  1011.1hPa Calm     77% 0.00in /  0mm 0 W/m2
23:59 35.3 °F /  1.8 °C 28.8 °F /  -1.8 °C 29.86in /  1011.1hPa Calm     77% 0.00in /  0mm 0 W/m2
Hartford County Weather
Compliments of Weather Underground - 4 mb